Time;durP1;ratioP1;P1;durP2;ratioP2;P2;SDS_P1;SDS_P2;PMS_P1;PMS_P2;Temp;Humidity;BMP_temperature;BMP_pressure;BME280_temperature;BME280_humidity;BME280_pressure;Samples;Min_cycle;Max_cycle;Signal;HPM_P1;HPM_P2
2022/04/12 00:00:09;;;;;;;12.23;7.07;;;;;;;11.00;55.23;101150.97;5006707;28;20033;-63
2022/04/12 00:02:35;;;;;;;10.45;6.70;;;;;;;10.96;55.48;101151.97;5005707;28;20022;-63
2022/04/12 00:05:00;;;;;;;11.05;6.63;;;;;;;11.00;55.16;101153.59;5006474;28;20145;-62
2022/04/12 00:07:26;;;;;;;10.07;6.13;;;;;;;11.01;55.50;101154.47;5004796;28;20022;-64
2022/04/12 00:09:51;;;;;;;12.52;7.07;;;;;;;10.93;55.27;101162.63;5006541;28;20030;-62
2022/04/12 00:12:16;;;;;;;8.60;5.93;;;;;;;11.01;55.13;101163.22;5006490;28;20068;-62
2022/04/12 00:14:42;;;;;;;7.88;6.30;;;;;;;11.02;54.87;101164.97;5006613;28;20014;-62
2022/04/12 00:19:52;;;;;;;8.50;6.10;;;;;;;10.98;55.30;101168.59;5006118;28;20116;-63
2022/04/12 00:22:17;;;;;;;9.43;6.78;;;;;;;10.86;56.05;101170.69;5006191;28;20476;-62
2022/04/12 00:24:43;;;;;;;9.63;6.75;;;;;;;10.77;56.07;101170.97;5006004;28;20373;-63
2022/04/12 00:27:08;;;;;;;11.15;6.45;;;;;;;10.84;55.62;101175.16;5006504;28;20088;-64
2022/04/12 00:29:33;;;;;;;10.43;7.03;;;;;;;10.79;55.96;101173.56;5006509;28;20049;-65
2022/04/12 00:31:59;;;;;;;13.80;6.90;;;;;;;10.75;55.96;101175.44;5006742;28;20104;-63
2022/04/12 00:34:25;;;;;;;10.70;7.13;;;;;;;10.71;56.18;101173.78;5008988;28;20044;-63
2022/04/12 00:36:50;;;;;;;10.32;6.85;;;;;;;10.65;56.61;101171.34;5006498;28;20094;-62
2022/04/12 00:39:15;;;;;;;8.88;6.50;;;;;;;10.60;56.30;101167.03;5004980;28;20029;-63
2022/04/12 00:41:42;;;;;;;9.40;6.70;;;;;;;10.53;56.61;101173.41;5006419;28;20022;-62
2022/04/12 00:44:08;;;;;;;8.93;6.15;;;;;;;10.56;56.56;101172.44;5005718;28;20033;-63
2022/04/12 00:46:33;;;;;;;7.97;6.13;;;;;;;10.56;56.86;101165.41;5022648;28;20067;-63
2022/04/12 00:48:58;;;;;;;13.43;6.95;;;;;;;10.53;56.21;101164.66;5026109;28;20036;-62
2022/04/12 00:51:24;;;;;;;10.88;6.25;;;;;;;10.50;56.49;101168.22;5010889;28;20093;-62
2022/04/12 00:53:49;;;;;;;10.73;6.80;;;;;;;10.38;56.93;101163.28;5006127;28;20358;-64
2022/04/12 00:56:15;;;;;;;7.35;6.20;;;;;;;10.37;57.17;101162.41;5001439;28;20022;-60
2022/04/12 00:58:45;;;;;;;7.53;5.78;;;;;;;10.39;57.30;101157.97;5006644;28;20014;-62
2022/04/12 01:01:10;;;;;;;9.02;6.22;;;;;;;10.32;57.02;101152.00;5003844;28;20392;-62
2022/04/12 01:03:36;;;;;;;10.10;6.78;;;;;;;10.33;57.44;101151.06;5006133;28;20056;-63
2022/04/12 01:06:02;;;;;;;7.95;6.22;;;;;;;10.33;56.96;101150.22;5005205;28;20054;-63
2022/04/12 01:08:27;;;;;;;9.35;6.70;;;;;;;10.27;57.46;101145.13;5020662;28;20044;-63
2022/04/12 01:10:53;;;;;;;8.43;6.32;;;;;;;10.25;57.22;101153.06;5033976;23;20085;-63
2022/04/12 01:13:18;;;;;;;14.25;6.57;;;;;;;10.32;56.99;101148.47;5025447;28;20029;-62
2022/04/12 01:15:44;;;;;;;9.82;6.88;;;;;;;10.22;57.18;101140.88;5026186;28;20025;-64
2022/04/12 01:18:10;;;;;;;10.45;6.28;;;;;;;10.26;57.45;101139.00;5034493;28;20056;-62
2022/04/12 01:20:36;;;;;;;9.02;6.55;;;;;;;10.16;57.75;101140.16;5045541;28;20051;-63
2022/04/12 01:23:15;;;;;;;10.75;6.53;;;;;;;10.14;57.67;101141.97;5044213;28;20471;-64
2022/04/12 01:25:41;;;;;;;11.52;7.20;;;;;;;10.20;57.20;101133.88;5045925;28;20058;-64
2022/04/12 01:28:08;;;;;;;12.07;7.57;;;;;;;10.05;57.95;101135.19;5038951;28;20021;-63
2022/04/12 01:30:34;;;;;;;11.50;6.85;;;;;;;9.98;58.45;101151.16;5025835;28;20029;-65
2022/04/12 01:32:59;;;;;;;10.75;6.88;;;;;;;10.07;58.21;101146.53;5024933;28;20063;-64
2022/04/12 01:35:25;;;;;;;8.85;6.20;;;;;;;10.03;57.79;101140.50;5025695;28;20033;-63
2022/04/12 01:37:50;;;;;;;10.13;6.40;;;;;;;9.99;58.00;101146.72;5025842;28;20026;-63
2022/04/12 01:40:16;;;;;;;12.85;6.18;;;;;;;9.98;58.25;101139.75;5026417;28;20020;-63
2022/04/12 01:42:41;;;;;;;8.65;6.47;;;;;;;9.95;58.16;101140.69;5025181;28;20034;-63
2022/04/12 01:45:07;;;;;;;11.65;6.88;;;;;;;9.84;58.76;101137.47;5024408;28;20060;-63
2022/04/12 01:47:33;;;;;;;9.48;5.97;;;;;;;9.84;58.48;101133.06;5025791;28;20021;-64
2022/04/12 01:49:58;;;;;;;10.95;6.70;;;;;;;9.77;59.10;101126.25;5038031;28;20552;-63
2022/04/12 01:52:24;;;;;;;7.93;6.22;;;;;;;9.81;58.64;101138.41;5045985;28;20111;-63
2022/04/12 01:54:49;;;;;;;8.93;5.82;;;;;;;9.80;58.67;101130.56;5033721;28;20033;-64
2022/04/12 01:57:15;;;;;;;9.93;6.80;;;;;;;9.79;58.60;101127.09;5024831;28;20081;-63
2022/04/12 01:59:42;;;;;;;6.43;5.30;;;;;;;9.70;58.85;101135.22;5028383;28;20111;-63
2022/04/12 02:02:07;;;;;;;9.98;6.43;;;;;;;9.64;59.21;101122.22;5024370;28;20025;-63
2022/04/12 02:04:33;;;;;;;10.25;6.97;;;;;;;9.64;59.49;101128.34;5024226;28;20042;-67
2022/04/12 02:06:58;;;;;;;9.43;6.38;;;;;;;9.65;59.16;101130.06;5023738;28;20025;-62
2022/04/12 02:09:23;;;;;;;9.95;6.35;;;;;;;9.69;58.92;101118.53;5024732;28;20048;-63
2022/04/12 02:11:49;;;;;;;9.25;6.53;;;;;;;9.67;59.22;101115.09;5025544;28;20025;-63
2022/04/12 02:14:14;;;;;;;9.25;6.50;;;;;;;9.57;59.45;101113.63;5025073;28;20399;-63
2022/04/12 02:16:39;;;;;;;8.55;6.75;;;;;;;9.54;59.06;101117.16;5024548;28;20037;-62
2022/04/12 02:19:05;;;;;;;10.55;6.78;;;;;;;9.59;59.03;101120.56;5024025;28;20419;-62
2022/04/12 02:21:30;;;;;;;10.73;6.47;;;;;;;9.52;59.20;101111.09;5023863;28;20041;-63
2022/04/12 02:23:55;;;;;;;12.75;6.13;;;;;;;9.52;59.54;101119.00;5025025;28;20072;-62
2022/04/12 02:26:21;;;;;;;9.73;6.53;;;;;;;9.43;59.48;101104.31;5024396;28;20030;-64
2022/04/12 02:28:46;;;;;;;11.77;6.82;;;;;;;9.45;59.49;101106.91;5025145;28;20021;-63
2022/04/12 02:31:11;;;;;;;8.10;6.22;;;;;;;9.36;59.79;101100.06;5011567;28;20037;-63
2022/04/12 02:33:37;;;;;;;7.32;6.03;;;;;;;9.44;59.64;101090.25;5029485;28;20059;-64
2022/04/12 02:36:02;;;;;;;11.43;6.15;;;;;;;9.45;59.69;101080.59;5027294;28;20399;-63
2022/04/12 02:38:28;;;;;;;12.10;6.05;;;;;;;9.34;59.77;101081.69;5028535;28;20534;-64
2022/04/12 02:40:53;;;;;;;8.80;6.10;;;;;;;9.30;59.80;101080.06;5026731;28;20025;-63
2022/04/12 02:43:18;;;;;;;10.70;6.80;;;;;;;9.28;59.81;101078.38;5029425;28;20036;-63
2022/04/12 02:45:44;;;;;;;8.60;5.93;;;;;;;9.23;59.50;101087.25;5028397;28;20120;-64
2022/04/12 02:48:11;;;;;;;13.07;6.43;;;;;;;9.20;59.60;101089.94;5028675;28;20045;-63
2022/04/12 02:50:37;;;;;;;11.55;6.10;;;;;;;9.26;59.28;101080.16;5027985;28;20056;-63
2022/04/12 02:53:02;;;;;;;12.15;6.05;;;;;;;9.34;59.50;101071.19;5028601;28;20033;-63
2022/04/12 02:55:27;;;;;;;10.27;6.65;;;;;;;9.30;59.58;101066.91;5028665;28;20028;-64
2022/04/12 02:57:53;;;;;;;12.13;6.10;;;;;;;9.27;59.24;101068.78;5027520;28;20028;-63
2022/04/12 03:00:18;;;;;;;9.85;6.07;;;;;;;9.25;59.59;101062.66;5028548;28;20344;-63
2022/04/12 03:02:43;;;;;;;8.95;5.18;;;;;;;9.31;59.17;101060.75;5027733;28;20484;-63
2022/04/12 03:05:10;;;;;;;10.85;5.32;;;;;;;9.22;59.43;101058.34;5027892;28;20060;-63
2022/04/12 03:07:35;;;;;;;6.03;4.63;;;;;;;9.31;59.00;101060.75;5028030;28;20545;-65
2022/04/12 03:10:00;;;;;;;9.15;5.78;;;;;;;9.17;59.76;101053.22;5028422;28;20046;-65
2022/04/12 03:12:26;;;;;;;7.07;5.53;;;;;;;9.22;59.38;101063.63;5027286;28;20049;-63
2022/04/12 03:14:51;;;;;;;8.73;5.18;;;;;;;9.19;59.67;101059.31;5026623;28;20018;-67
2022/04/12 03:17:17;;;;;;;10.05;5.13;;;;;;;9.18;59.42;101056.72;5027726;28;20037;-64
2022/04/12 03:19:42;;;;;;;7.32;4.82;;;;;;;9.14;59.39;101049.78;5047884;28;20025;-63
2022/04/12 03:22:07;;;;;;;8.18;5.72;;;;;;;9.09;59.76;101060.41;5048216;28;20025;-64
2022/04/12 03:24:33;;;;;;;7.80;5.57;;;;;;;9.15;59.25;101057.63;5028199;28;20442;-63
2022/04/12 03:26:58;;;;;;;8.30;4.88;;;;;;;9.15;59.66;101054.16;5027883;28;20060;-63
2022/04/12 03:29:27;;;;;;;8.23;5.10;;;;;;;9.14;59.43;101052.41;5027450;28;20037;-63
2022/04/12 03:31:52;;;;;;;9.77;5.32;;;;;;;9.13;59.69;101053.31;5028044;28;20438;-63
2022/04/12 03:34:18;;;;;;;9.45;5.63;;;;;;;9.08;59.69;101063.94;5026224;28;20021;-64
2022/04/12 03:36:43;;;;;;;15.60;5.45;;;;;;;9.07;59.34;101067.47;5027312;28;20032;-64
2022/04/12 03:39:16;;;;;;;7.20;5.40;;;;;;;9.16;59.32;101061.13;5032710;28;20037;-64
2022/04/12 03:41:41;;;;;;;8.40;5.90;;;;;;;9.29;58.81;101061.69;5047246;28;20112;-64
2022/04/12 03:44:07;;;;;;;7.13;4.70;;;;;;;9.30;58.72;101066.91;5032820;28;20052;-64
2022/04/12 03:46:32;;;;;;;10.65;5.43;;;;;;;9.37;58.70;101054.47;5025873;28;20034;-63
2022/04/12 03:48:57;;;;;;;8.63;5.22;;;;;;;9.45;58.49;101041.16;5027372;28;20232;-64
2022/04/12 03:51:23;;;;;;;10.73;5.32;;;;;;;9.32;58.81;101041.44;5027249;28;20116;-63
2022/04/12 03:53:49;;;;;;;5.85;4.95;;;;;;;9.29;59.09;101046.78;5036296;28;20386;-64
2022/04/12 03:56:15;;;;;;;8.55;5.22;;;;;;;9.21;59.16;101048.72;5047675;28;20025;-65
2022/04/12 03:58:41;;;;;;;8.63;5.30;;;;;;;9.25;58.95;101063.53;5039839;28;20049;-64
2022/04/12 04:01:06;;;;;;;9.98;5.35;;;;;;;9.25;58.92;101068.81;5028060;28;20030;-63
2022/04/12 04:03:31;;;;;;;8.70;4.97;;;;;;;9.20;59.01;101082.06;5025821;28;20037;-62
2022/04/12 04:05:57;;;;;;;12.10;5.53;;;;;;;9.11;59.25;101095.41;5025707;28;20029;-64
2022/04/12 04:08:22;;;;;;;9.23;5.38;;;;;;;9.13;59.16;101095.38;5025608;28;20079;-63
2022/04/12 04:10:48;;;;;;;10.30;5.43;;;;;;;9.23;58.97;101086.38;5027408;28;20319;-63
2022/04/12 04:13:14;;;;;;;8.73;5.22;;;;;;;9.22;58.57;101079.41;5026850;28;20083;-64
2022/04/12 04:15:40;;;;;;;5.93;4.80;;;;;;;9.26;58.69;101088.06;5033464;28;20166;-63
2022/04/12 04:18:09;;;;;;;8.45;4.93;;;;;;;9.28;58.64;101084.50;5027440;28;20017;-63
2022/04/12 04:20:35;;;;;;;9.80;5.00;;;;;;;9.39;58.54;101078.13;5026626;28;20017;-63
2022/04/12 04:23:01;;;;;;;9.93;4.53;;;;;;;9.42;58.30;101073.63;5027066;28;20598;-63
2022/04/12 04:25:27;;;;;;;7.57;4.80;;;;;;;9.28;58.37;101066.09;5025984;28;20034;-64
2022/04/12 04:27:52;;;;;;;10.75;4.90;;;;;;;9.16;59.12;101058.50;5027566;28;20078;-63
2022/04/12 04:30:19;;;;;;;8.85;5.80;;;;;;;9.14;59.19;101052.41;5026591;28;20030;-64
2022/04/12 04:32:45;;;;;;;7.25;4.78;;;;;;;9.17;59.10;101049.72;5026558;28;20341;-65
2022/04/12 04:35:10;;;;;;;9.90;5.80;;;;;;;9.15;59.36;101044.47;5027029;28;20022;-63
2022/04/12 04:37:49;;;;;;;10.63;5.55;;;;;;;9.06;59.73;101047.34;5026796;28;20021;-63
2022/04/12 04:40:16;;;;;;;9.73;5.57;;;;;;;8.92;60.36;101039.78;5027111;28;20577;-63
2022/04/12 04:42:44;;;;;;;7.47;5.63;;;;;;;8.92;60.17;101034.53;5032306;28;20032;-64
2022/04/12 04:45:13;;;;;;;9.73;5.55;;;;;;;8.91;60.03;101038.91;5032376;28;20021;-64
2022/04/12 04:47:49;;;;;;;10.98;5.50;;;;;;;8.87;59.68;101036.41;5025100;28;20053;-62
2022/04/12 04:50:16;;;;;;;8.20;4.78;;;;;;;8.93;60.10;101033.63;5005798;28;20033;-62
2022/04/12 04:52:41;;;;;;;10.45;5.60;;;;;;;8.94;59.97;101027.50;5025444;28;20109;-64
2022/04/12 04:55:07;;;;;;;8.82;5.75;;;;;;;8.88;60.22;101027.63;5025382;28;20145;-62
2022/04/12 04:57:37;;;;;;;9.25;5.07;;;;;;;8.90;60.01;101028.44;5026105;28;20028;-62
2022/04/12 05:00:04;;;;;;;11.00;5.28;;;;;;;8.98;59.97;101029.13;5025221;28;20025;-63
2022/04/12 05:02:30;;;;;;;9.02;5.63;;;;;;;8.98;60.09;101027.34;5045721;28;20386;-63
2022/04/12 05:04:55;;;;;;;9.48;5.45;;;;;;;8.93;60.15;101028.38;5044579;28;20120;-63
2022/04/12 05:07:25;;;;;;;7.38;5.63;;;;;;;8.89;60.54;101037.25;5028726;28;20490;-62
2022/04/12 05:09:51;;;;;;;11.15;5.75;;;;;;;9.04;59.84;101039.50;5025964;28;20055;-63
2022/04/12 05:12:17;;;;;;;8.48;5.65;;;;;;;8.95;60.16;101039.72;5025195;28;20030;-63
2022/04/12 05:14:42;;;;;;;8.85;5.30;;;;;;;8.85;60.54;101029.44;5026064;28;20014;-64
2022/04/12 05:17:07;;;;;;;8.65;5.55;;;;;;;8.86;60.65;101038.19;5035354;28;20029;-63
2022/04/12 05:19:33;;;;;;;10.65;5.63;;;;;;;8.84;60.93;101053.09;5044951;28;20017;-64
2022/04/12 05:21:58;;;;;;;12.25;5.90;;;;;;;8.95;60.43;101048.47;5036600;28;20531;-63
2022/04/12 05:24:23;;;;;;;9.80;5.68;;;;;;;8.89;60.51;101059.13;5025884;28;20063;-62
2022/04/12 05:26:48;;;;;;;12.88;5.75;;;;;;;8.97;60.51;101056.31;5026202;28;20160;-63
2022/04/12 05:29:14;;;;;;;8.23;5.95;;;;;;;8.97;60.80;101056.31;5024121;28;20079;-63
2022/04/12 05:31:39;;;;;;;9.57;5.78;;;;;;;8.96;60.40;101065.09;5024964;28;20033;-63
2022/04/12 05:34:04;;;;;;;10.85;5.63;;;;;;;9.03;60.22;101064.03;5022746;28;20064;-62
2022/04/12 05:36:30;;;;;;;10.10;6.22;;;;;;;9.05;60.47;101058.75;5022317;28;20037;-64
2022/04/12 05:38:56;;;;;;;11.77;5.78;;;;;;;8.94;60.83;101062.50;5025034;28;20038;-64
2022/04/12 05:41:22;;;;;;;7.75;5.38;;;;;;;9.10;60.28;101062.16;5025073;28;20029;-64
2022/04/12 05:43:47;;;;;;;10.57;5.78;;;;;;;9.13;60.18;101064.72;5030120;28;20048;-60
2022/04/12 05:46:12;;;;;;;7.95;5.90;;;;;;;9.20;60.13;101062.78;5015804;28;20028;-60
2022/04/12 05:48:38;;;;;;;9.25;5.47;;;;;;;9.12;60.56;101060.31;5016218;28;20025;-60
2022/04/12 05:51:03;;;;;;;10.20;5.75;;;;;;;9.15;60.36;101062.03;5027577;28;20037;-60
2022/04/12 05:53:28;;;;;;;11.23;6.00;;;;;;;9.15;60.56;101051.53;5022616;28;20043;-62
2022/04/12 05:55:54;;;;;;;8.45;5.88;;;;;;;9.31;60.24;101052.00;5025277;28;20022;-60
2022/04/12 05:58:19;;;;;;;10.60;6.40;;;;;;;9.40;59.96;101050.91;5024259;28;20203;-64
2022/04/12 06:00:44;;;;;;;12.93;6.10;;;;;;;9.40;59.96;101061.41;5025100;28;20076;-61
2022/04/12 06:03:10;;;;;;;8.05;5.65;;;;;;;9.45;59.75;101067.44;5023433;28;20022;-62
2022/04/12 06:05:35;;;;;;;7.38;5.55;;;;;;;9.65;59.48;101061.66;5023416;28;20476;-60
2022/04/12 06:08:03;;;;;;;8.65;5.60;;;;;;;9.86;58.67;101062.84;5023089;28;20025;-59
2022/04/12 06:10:28;;;;;;;13.27;5.82;;;;;;;9.96;58.28;101052.03;5024208;28;20069;-61
2022/04/12 06:12:53;;;;;;;10.25;5.85;;;;;;;10.04;58.20;101054.47;5024289;28;20203;-56
2022/04/12 06:15:19;;;;;;;10.57;6.35;;;;;;;10.13;58.20;101040.16;5024780;28;20346;-63
2022/04/12 06:17:44;;;;;;;12.82;6.50;;;;;;;10.17;57.76;101041.84;5024692;28;20021;-63
2022/04/12 06:20:13;;;;;;;9.02;5.82;;;;;;;10.26;58.01;101049.44;5021413;28;20072;-62
2022/04/12 06:22:39;;;;;;;11.07;6.10;;;;;;;10.28;57.83;101049.41;5013813;28;20060;-62
2022/04/12 06:25:05;;;;;;;9.77;6.43;;;;;;;10.35;57.84;101054.44;5013912;28;20296;-63
2022/04/12 06:27:33;;;;;;;10.80;5.90;;;;;;;10.38;57.10;101063.19;5015573;28;20266;-61
2022/04/12 06:30:03;;;;;;;10.32;6.47;;;;;;;10.55;57.26;101067.97;5015429;28;20532;-64
2022/04/12 06:32:28;;;;;;;8.48;5.90;;;;;;;10.60;56.87;101066.06;5025096;28;20017;-65
2022/04/12 06:34:54;;;;;;;12.70;5.90;;;;;;;10.80;56.27;101069.84;5020778;28;20100;-62
2022/04/12 06:37:19;;;;;;;11.32;5.93;;;;;;;10.74;56.88;101068.25;5025058;28;20021;-63
2022/04/12 06:39:44;;;;;;;9.27;6.57;;;;;;;10.96;56.22;101067.59;5022045;28;20057;-62
2022/04/12 06:42:10;;;;;;;11.82;6.80;;;;;;;10.86;56.18;101070.53;5005201;28;20018;-65
2022/04/12 06:44:37;;;;;;;13.05;6.20;;;;;;;10.95;55.73;101063.22;5004291;28;20407;-64
2022/04/12 06:47:02;;;;;;;10.60;6.53;;;;;;;11.08;55.83;101067.19;5014984;28;20025;-63
2022/04/12 06:49:28;;;;;;;8.20;6.30;;;;;;;11.30;55.45;101061.22;5003204;28;20478;-64
2022/04/12 06:51:53;;;;;;;11.20;6.30;;;;;;;11.41;55.46;101062.63;5035678;28;20037;-63
2022/04/12 06:54:18;;;;;;;9.10;6.10;;;;;;;11.46;54.66;101048.38;5044695;28;20029;-63
2022/04/12 06:56:43;;;;;;;13.02;6.20;;;;;;;11.66;54.40;101046.81;5039578;28;20128;-63
2022/04/12 06:59:09;;;;;;;13.07;6.10;;;;;;;11.71;54.69;101057.22;5043100;28;20107;-62
2022/04/12 07:01:34;;;;;;;10.77;6.28;;;;;;;11.80;54.69;101056.03;5033825;28;20037;-65
2022/04/12 07:03:59;;;;;;;9.40;6.10;;;;;;;11.94;54.55;101061.66;5025514;28;20029;-62
2022/04/12 07:06:25;;;;;;;13.50;6.75;;;;;;;11.92;54.18;101049.44;5023424;28;20029;-63
2022/04/12 07:08:50;;;;;;;11.57;6.63;;;;;;;11.96;54.21;101040.50;5023271;28;20065;-62
2022/04/12 07:11:16;;;;;;;9.60;5.78;;;;;;;12.08;53.76;101045.38;5024854;28;20798;-66
2022/04/12 07:13:41;;;;;;;10.65;6.45;;;;;;;12.21;53.83;101039.59;5023912;28;20083;-63
2022/04/12 07:16:06;;;;;;;14.98;5.75;;;;;;;12.24;53.63;101042.13;5024271;28;20041;-64
2022/04/12 07:18:31;;;;;;;8.85;5.55;;;;;;;12.33;53.58;101047.06;5027133;28;20025;-63
2022/04/12 07:20:57;;;;;;;6.38;5.40;;;;;;;12.50;52.94;101045.56;5026626;28;20029;-63
2022/04/12 07:23:22;;;;;;;10.15;6.45;;;;;;;12.38;53.40;101042.47;5027368;28;20064;-62
2022/04/12 07:25:47;;;;;;;9.15;6.43;;;;;;;12.50;52.87;101049.06;5027109;28;20040;-63
2022/04/12 07:28:13;;;;;;;10.55;5.82;;;;;;;12.68;53.10;101049.28;5028017;28;20034;-64
2022/04/12 07:30:38;;;;;;;12.20;6.25;;;;;;;12.78;52.98;101049.75;5026633;28;20332;-63
2022/04/12 07:33:03;;;;;;;13.05;6.30;;;;;;;12.58;53.12;101043.47;5027525;28;20384;-63
2022/04/12 07:35:30;;;;;;;10.13;6.28;;;;;;;12.83;53.18;101036.38;5024602;28;20041;-63
2022/04/12 07:37:56;;;;;;;11.45;5.82;;;;;;;12.84;52.97;101049.53;5026842;28;20116;-62
2022/04/12 07:40:21;;;;;;;10.35;6.05;;;;;;;12.87;53.02;101040.59;5026265;28;20105;-63
2022/04/12 07:42:46;;;;;;;11.98;5.30;;;;;;;12.91;52.79;101036.06;5028353;28;20029;-64
2022/04/12 07:45:12;;;;;;;7.28;5.63;;;;;;;12.82;52.77;101038.13;5025139;28;20033;-63
2022/04/12 07:47:37;;;;;;;9.95;6.15;;;;;;;12.79;53.14;101040.91;5047794;28;20589;-62
2022/04/12 07:50:03;;;;;;;10.65;6.47;;;;;;;12.88;53.51;101040.53;5044139;28;20506;-63
2022/04/12 07:52:28;;;;;;;13.52;5.95;;;;;;;13.03;53.28;101040.81;5028923;28;20474;-63
2022/04/12 07:54:54;;;;;;;9.15;5.60;;;;;;;13.23;52.56;101034.72;5026778;28;20034;-62
2022/04/12 07:57:19;;;;;;;11.07;6.18;;;;;;;13.40;52.46;101043.75;5027125;28;20484;-63
2022/04/12 07:59:44;;;;;;;7.85;5.53;;;;;;;13.45;52.68;101043.53;5026553;28;20040;-62
2022/04/12 08:02:09;;;;;;;11.60;6.13;;;;;;;13.67;52.06;101032.03;5025973;28;20431;-63
2022/04/12 08:04:35;;;;;;;10.40;5.97;;;;;;;13.86;52.16;101032.09;5025706;28;20030;-63
2022/04/12 08:07:00;;;;;;;7.65;5.80;;;;;;;13.87;51.82;101034.66;5036842;28;20560;-64
2022/04/12 08:09:26;;;;;;;9.30;6.40;;;;;;;13.77;51.96;101033.34;5045798;28;20403;-62
2022/04/12 08:11:51;;;;;;;10.10;6.25;;;;;;;13.82;51.66;101038.44;5037619;28;20039;-64
2022/04/12 08:14:16;;;;;;;8.27;5.57;;;;;;;13.68;51.60;101039.06;5027333;28;20025;-63
2022/04/12 08:16:42;;;;;;;9.25;6.15;;;;;;;13.86;51.72;101053.28;5025920;28;20033;-62
2022/04/12 08:19:07;;;;;;;9.30;6.28;;;;;;;14.31;51.17;101053.03;5007967;28;20507;-62
2022/04/12 08:21:37;;;;;;;7.90;6.07;;;;;;;14.43;50.97;101051.59;5028007;28;20029;-62
2022/04/12 08:24:03;;;;;;;10.95;6.03;;;;;;;14.54;50.43;101062.56;5045491;28;20036;-62
2022/04/12 08:26:29;;;;;;;8.90;6.15;;;;;;;14.65;50.09;101052.31;5042082;28;20168;-62
2022/04/12 08:28:55;;;;;;;7.38;5.60;;;;;;;14.30;51.29;101056.63;5025768;28;20113;-63
2022/04/12 08:31:20;;;;;;;15.40;6.38;;;;;;;14.34;51.25;101045.81;5025619;28;20202;-62
2022/04/12 08:33:45;;;;;;;16.80;6.30;;;;;;;14.32;51.26;101049.44;5027050;28;20033;-63
2022/04/12 08:36:11;;;;;;;12.60;6.22;;;;;;;14.27;51.61;101057.66;5026314;28;20026;-62
2022/04/12 08:38:36;;;;;;;10.23;6.47;;;;;;;14.39;51.75;101057.06;5025273;28;20055;-63
2022/04/12 08:41:02;;;;;;;11.85;5.97;;;;;;;14.45;51.25;101050.59;5023173;28;20095;-62
2022/04/12 08:43:29;;;;;;;8.27;5.97;;;;;;;14.66;51.48;101059.34;5017859;28;20502;-63
2022/04/12 08:45:54;;;;;;;9.50;6.20;;;;;;;14.72;51.52;101057.34;5023303;28;20038;-61
2022/04/12 08:48:20;;;;;;;15.95;6.88;;;;;;;14.72;51.52;101058.19;5025941;28;20391;-62
2022/04/12 08:50:46;;;;;;;8.55;5.88;;;;;;;14.95;51.76;101050.06;5026338;28;20622;-61
2022/04/12 08:53:12;;;;;;;7.30;5.30;;;;;;;15.04;51.46;101036.34;5024149;28;20014;-62
2022/04/12 08:55:39;;;;;;;9.60;5.32;;;;;;;15.09;50.74;101030.81;5024302;28;20084;-63
2022/04/12 08:58:04;;;;;;;12.65;6.15;;;;;;;15.34;50.78;101041.06;5025214;28;20391;-63
2022/04/12 09:00:29;;;;;;;13.57;5.20;;;;;;;15.41;50.22;101039.81;5025735;28;20120;-63
2022/04/12 09:02:59;;;;;;;7.05;4.82;;;;;;;15.40;49.83;101034.56;5023966;28;20487;-64
2022/04/12 09:05:25;;;;;;;8.55;5.15;;;;;;;15.53;49.91;101019.72;5024714;28;20072;-64
2022/04/12 09:07:50;;;;;;;10.30;4.82;;;;;;;15.68;49.68;101011.03;5024112;28;20035;-62
2022/04/12 09:10:16;;;;;;;9.25;5.43;;;;;;;15.66;49.75;101008.47;5045300;28;20060;-63
2022/04/12 09:12:42;;;;;;;9.95;4.88;;;;;;;15.88;49.69;101005.53;5044879;28;20035;-62
2022/04/12 09:15:11;;;;;;;16.60;5.35;;;;;;;15.81;49.07;101004.13;5028033;28;20116;-62
2022/04/12 09:17:39;;;;;;;9.30;5.45;;;;;;;15.81;49.46;100998.81;5025046;28;20034;-63
2022/04/12 09:20:16;;;;;;;7.82;5.22;;;;;;;15.99;49.76;101007.63;5024251;28;20396;-63
2022/04/12 09:22:42;;;;;;;9.23;4.97;;;;;;;16.08;49.20;100998.31;5024919;28;20063;-62
2022/04/12 09:25:10;;;;;;;7.03;4.82;;;;;;;16.19;49.27;100991.53;5023116;28;20087;-61
2022/04/12 09:27:36;;;;;;;9.05;5.28;;;;;;;16.25;48.51;100991.16;5025094;28;20056;-65
2022/04/12 09:30:05;;;;;;;5.72;4.53;;;;;;;16.64;48.31;100995.19;5027966;28;20128;-59
2022/04/12 09:32:36;;;;;;;8.02;4.68;;;;;;;17.02;47.72;100988.59;5045535;28;20029;-58
2022/04/12 09:35:02;;;;;;;8.07;4.53;;;;;;;17.38;47.24;100983.88;5041081;28;20037;-58
2022/04/12 09:37:39;;;;;;;7.53;4.38;;;;;;;17.75;46.31;100987.84;5025692;28;20029;-60
2022/04/12 09:40:12;;;;;;;6.78;3.95;;;;;;;17.96;46.08;100990.13;5010245;28;20489;-58
2022/04/12 09:42:55;;;;;;;6.53;4.20;;;;;;;17.92;45.65;100990.34;5025693;28;20025;-61
2022/04/12 09:45:26;;;;;;;12.43;4.13;;;;;;;18.13;45.23;100981.97;5019618;28;20030;-63
2022/04/12 09:47:53;;;;;;;10.55;4.15;;;;;;;18.24;45.39;100983.09;5008753;28;20098;-60
2022/04/12 09:50:22;;;;;;;8.93;4.90;;;;;;;18.31;45.46;100989.75;5009681;28;20032;-60
2022/04/12 09:52:54;;;;;;;7.32;4.45;;;;;;;18.28;45.15;100988.13;5013637;28;20024;-58
2022/04/12 09:55:31;;;;;;;8.25;4.90;;;;;;;18.36;45.24;100992.94;5015718;28;20496;-59
2022/04/12 09:57:57;;;;;;;7.90;4.35;;;;;;;18.56;44.82;100994.34;5004471;28;20026;-59
2022/04/12 10:00:22;;;;;;;6.43;4.22;;;;;;;18.75;44.75;100992.28;5032151;28;20026;-59
2022/04/12 10:02:48;;;;;;;11.30;4.13;;;;;;;18.93;44.54;100990.16;5040270;28;20443;-58
2022/04/12 10:05:13;;;;;;;10.65;4.57;;;;;;;19.15;44.23;100978.91;5032865;28;20082;-58
2022/04/12 10:07:39;;;;;;;6.75;4.40;;;;;;;19.13;43.74;100969.31;5027212;28;20484;-59
2022/04/12 10:10:05;;;;;;;7.95;4.88;;;;;;;19.06;43.63;100972.34;5016745;28;20108;-58
2022/04/12 10:12:31;;;;;;;9.55;4.05;;;;;;;18.85;45.23;100966.69;5019195;28;20121;-58
2022/04/12 10:14:56;;;;;;;7.10;4.13;;;;;;;19.09;44.81;100971.34;5019524;28;20112;-57
2022/04/12 10:17:22;;;;;;;7.70;4.40;;;;;;;19.32;43.36;100952.88;5024552;28;20208;-57
2022/04/12 10:19:47;;;;;;;8.15;4.00;;;;;;;19.01;44.83;100957.63;5022336;28;20038;-57
2022/04/12 10:22:12;;;;;;;9.38;4.72;;;;;;;19.12;44.03;100947.09;5012834;28;20538;-61
2022/04/12 10:24:38;;;;;;;5.70;4.05;;;;;;;19.42;43.40;100932.56;5015039;28;20037;-58
2022/04/12 10:27:05;;;;;;;9.50;4.30;;;;;;;19.56;43.82;100926.25;5013385;28;20445;-58
2022/04/12 10:29:31;;;;;;;5.88;3.60;;;;;;;19.91;43.37;100932.72;5013525;28;20026;-57
2022/04/12 10:32:01;;;;;;;6.22;4.15;;;;;;;20.11;43.14;100930.44;5014072;28;20021;-59
2022/04/12 10:34:27;;;;;;;7.95;3.83;;;;;;;20.08;43.25;100949.38;5010925;28;20113;-58
2022/04/12 10:36:56;;;;;;;7.07;4.00;;;;;;;19.73;44.09;100953.59;5014402;28;20610;-57
2022/04/12 10:39:28;;;;;;;7.88;4.40;;;;;;;19.82;43.39;100952.09;5014061;28;20497;-57
2022/04/12 10:41:55;;;;;;;7.25;4.20;;;;;;;19.81;43.74;100943.19;5027525;28;20104;-58
2022/04/12 10:44:21;;;;;;;6.68;3.55;;;;;;;20.00;43.14;100941.88;5022988;28;20037;-58
2022/04/12 10:46:48;;;;;;;7.28;3.88;;;;;;;20.16;41.66;100941.66;5023101;28;20041;-57
2022/04/12 10:49:19;;;;;;;6.85;3.70;;;;;;;20.18;41.65;100939.72;5023203;28;20013;-60
2022/04/12 10:51:46;;;;;;;10.77;4.75;;;;;;;20.76;41.50;100921.22;5023280;28;20052;-59
2022/04/12 10:54:29;;;;;;;8.35;3.80;;;;;;;20.74;43.00;100920.50;5001636;28;20484;-58
2022/04/12 10:57:22;;;;;;;6.68;4.90;;;;;;;20.66;41.81;100921.06;5006053;28;20025;-57
2022/04/12 10:59:53;;;;;;;13.10;4.80;;;;;;;20.10;42.95;100923.38;5018988;28;21889;-58
2022/04/12 11:02:18;;;;;;;6.30;4.15;;;;;;;19.85;44.27;100933.16;5029184;28;20030;-59
2022/04/12 11:04:43;;;;;;;6.63;4.80;;;;;;;19.95;43.73;100931.53;5027619;28;20028;-59
2022/04/12 11:07:09;;;;;;;12.52;4.85;;;;;;;20.34;42.90;100938.56;5028276;28;20028;-59
2022/04/12 11:09:35;;;;;;;6.00;4.45;;;;;;;19.95;42.97;100936.88;5027771;28;20422;-61
2022/04/12 11:12:02;;;;;;;10.32;4.78;;;;;;;20.08;44.15;100933.34;5027927;28;20091;-61
2022/04/12 11:14:32;;;;;;;7.72;4.32;;;;;;;20.21;42.83;100933.28;5026256;28;20022;-60
2022/04/12 11:17:07;;;;;;;6.65;4.45;;;;;;;20.34;43.31;100919.84;5027990;28;20025;-60
2022/04/12 11:19:44;;;;;;;7.28;4.70;;;;;;;20.57;42.97;100909.25;5027414;28;20014;-60
2022/04/12 11:22:11;;;;;;;9.02;4.55;;;;;;;20.51;42.84;100896.31;5028283;28;20440;-59